Danbury, Iowa
Current Conditions -  °F | °C
As of 3:15 AM on Wednesday 22 Oct 2014 (Local Time) from KDNS Reporting Station
Overcast Overcast  
Wind Chill: 54°   Ceiling: 5000
Heat Index: 54°   Visibility: 10mi
Dew Point: 45°   Wind: 10mph
Humidity: 72%   Direction: 150°SSE
Pressure: 30.1"   Gusts: 18mph
Location:  42.23°N, 95.72°W
Report Text: KDNS 220815Z AUTO 15009G16KT 10SM BKN050 OVC065 12/07 A3010 RMK AO2
Loading
Personal Weather Stations






























Interactive Weather Map
Tropical Storm Tracking
New forecast layout! Learn more

10-Day Weather Forecast

Advertisements
Track Severe Weather on mobile